Woodlawn, Tennessee
Current Conditions -  °F | °C
As of 5:58 AM on Monday 20 Oct 2014 (Local Time) from KCKV Reporting Station
Haze Haze  
Wind Chill: 40°   Ceiling: Unl
Heat Index: 43°   Visibility: 3mi
Dew Point: 42°   Wind: 5mph
Humidity: 97%   Direction: 140°SE
Pressure: 30.07"   Gusts: NA
Location:  36.54°N, 87.51°W
Report Text: KCKV 201058Z AUTO 14004KT 3SM BR CLR 06/06 A3007 RMK AO2 T00610056
Loading
Personal Weather Stations






























Interactive Weather Map
Tropical Storm Tracking
New forecast layout! Learn more

10-Day Weather Forecast

Advertisements
Track Severe Weather on mobile